createdAt,value
2022-11-01T00:02:15.871Z,14.70
2022-11-01T00:04:43.848Z,14.70
2022-11-01T00:07:11.804Z,14.80
2022-11-01T00:09:39.741Z,14.70
2022-11-01T00:12:09.257Z,14.70
2022-11-01T00:14:37.202Z,14.70
2022-11-01T00:17:05.434Z,14.70
2022-11-01T00:19:33.743Z,14.70
2022-11-01T00:22:02.329Z,14.70
2022-11-01T00:24:31.531Z,14.70
2022-11-01T00:26:59.784Z,14.70
2022-11-01T00:29:29.094Z,14.70
2022-11-01T00:31:57.132Z,14.70
2022-11-01T00:34:25.128Z,14.60
2022-11-01T00:36:53.082Z,14.60
2022-11-01T00:39:21.190Z,14.60
2022-11-01T00:41:49.249Z,14.60
2022-11-01T00:44:17.225Z,14.60
2022-11-01T00:46:46.551Z,14.60
2022-11-01T00:49:14.532Z,14.60
2022-11-01T00:51:42.423Z,14.60
2022-11-01T00:54:10.440Z,14.60
2022-11-01T00:56:38.409Z,14.60
2022-11-01T00:59:06.382Z,14.60
2022-11-01T01:01:34.436Z,14.60
2022-11-01T01:04:03.864Z,14.60
2022-11-01T01:06:31.930Z,14.50
2022-11-01T01:09:00.660Z,14.60
2022-11-01T01:11:28.869Z,14.60
2022-11-01T01:13:56.834Z,14.50
2022-11-01T01:16:24.805Z,14.50
2022-11-01T01:18:52.819Z,14.50
2022-11-01T01:21:22.064Z,14.50
2022-11-01T01:23:51.430Z,14.50
2022-11-01T01:26:19.389Z,14.50
2022-11-01T01:28:47.337Z,14.50
2022-11-01T01:31:15.692Z,14.50
2022-11-01T01:33:43.645Z,14.50
2022-11-01T01:36:11.710Z,14.40
2022-11-01T01:38:40.994Z,14.40
2022-11-01T01:41:26.141Z,14.40
2022-11-01T01:43:54.244Z,14.40
2022-11-01T01:46:22.654Z,14.40
2022-11-01T01:48:55.688Z,14.40
2022-11-01T01:51:27.508Z,14.40
2022-11-01T01:53:58.943Z,14.40
2022-11-01T01:56:31.925Z,14.40
2022-11-01T01:59:03.905Z,14.40
2022-11-01T02:01:32.915Z,14.40
2022-11-01T02:04:00.973Z,14.30
2022-11-01T02:06:29.308Z,14.30
2022-11-01T02:09:01.272Z,14.30
2022-11-01T02:11:29.291Z,14.30
2022-11-01T02:13:58.339Z,14.30
2022-11-01T02:16:45.859Z,14.30
2022-11-01T02:19:41.008Z,14.30
2022-11-01T02:22:14.664Z,14.30
2022-11-01T02:25:00.879Z,14.30
2022-11-01T02:27:35.835Z,14.30
2022-11-01T02:30:18.379Z,14.20
2022-11-01T02:33:01.074Z,14.20
2022-11-01T02:35:39.914Z,14.20
2022-11-01T02:38:10.654Z,14.30
2022-11-01T02:40:47.100Z,14.20
2022-11-01T02:43:20.287Z,14.20
2022-11-01T02:45:50.967Z,14.20
2022-11-01T02:48:23.091Z,14.20
2022-11-01T02:50:55.266Z,14.20
2022-11-01T02:53:23.488Z,14.20
2022-11-01T02:55:53.133Z,14.20
2022-11-01T02:58:23.945Z,14.20
2022-11-01T03:00:52.477Z,14.20
2022-11-01T03:03:24.673Z,14.20
2022-11-01T03:06:08.717Z,14.20
2022-11-01T03:08:42.103Z,14.20
2022-11-01T03:11:13.310Z,14.20
2022-11-01T03:13:54.434Z,14.10
2022-11-01T03:16:31.950Z,14.20
2022-11-01T03:19:16.304Z,14.10
2022-11-01T03:21:51.493Z,14.20
2022-11-01T03:24:25.889Z,14.10
2022-11-01T03:27:01.985Z,14.10
2022-11-01T03:29:32.462Z,14.10
2022-11-01T03:32:02.897Z,14.10
2022-11-01T03:34:35.435Z,14.10
2022-11-01T03:37:06.908Z,14.10
2022-11-01T03:39:40.044Z,14.10
2022-11-01T03:42:12.706Z,14.10
2022-11-01T03:44:44.104Z,14.10
2022-11-01T03:47:13.236Z,14.10
2022-11-01T03:49:42.640Z,14.10
2022-11-01T03:52:10.631Z,14.10
2022-11-01T03:54:38.504Z,14.10
2022-11-01T03:57:06.585Z,14.10
2022-11-01T03:59:34.605Z,14.10
2022-11-01T04:02:02.526Z,14.10
2022-11-01T04:04:30.536Z,14.00
2022-11-01T04:06:59.791Z,14.00
2022-11-01T04:09:27.685Z,14.10
2022-11-01T04:11:55.566Z,14.00
2022-11-01T04:14:41.187Z,14.00
2022-11-01T04:17:28.350Z,14.00
2022-11-01T04:20:13.846Z,14.00
2022-11-01T04:22:43.112Z,14.00
2022-11-01T04:25:11.016Z,14.10
2022-11-01T04:27:38.870Z,14.00
2022-11-01T04:30:07.798Z,14.00
2022-11-01T04:32:37.093Z,14.00
2022-11-01T04:37:38.227Z,14.00
2022-11-01T04:40:08.898Z,14.00
2022-11-01T04:42:37.137Z,14.10
2022-11-01T04:45:06.469Z,14.00
2022-11-01T04:47:34.495Z,14.00
2022-11-01T04:50:02.628Z,14.00
2022-11-01T04:52:30.554Z,14.00
2022-11-01T04:54:58.585Z,14.00
2022-11-01T04:57:27.814Z,14.00
2022-11-01T04:59:58.126Z,14.00
2022-11-01T05:02:26.009Z,14.00
2022-11-01T05:04:53.916Z,14.00
2022-11-01T05:07:21.837Z,14.00
2022-11-01T05:09:49.752Z,14.00
2022-11-01T05:12:18.865Z,14.00
2022-11-01T05:14:49.885Z,14.00
2022-11-01T05:17:21.133Z,14.00
2022-11-01T05:19:49.325Z,14.00
2022-11-01T05:22:17.421Z,14.00
2022-11-01T05:24:45.417Z,14.00
2022-11-01T05:27:13.492Z,14.00
2022-11-01T05:29:41.401Z,14.00
2022-11-01T05:32:10.757Z,14.00
2022-11-01T05:34:38.647Z,14.00
2022-11-01T05:37:06.634Z,13.90
2022-11-01T05:39:34.752Z,13.90
2022-11-01T05:42:03.091Z,13.90
2022-11-01T05:44:31.194Z,13.90
2022-11-01T05:46:59.078Z,14.00
2022-11-01T05:49:28.523Z,13.90
2022-11-01T05:51:56.419Z,14.00
2022-11-01T05:54:24.423Z,13.90
2022-11-01T05:56:55.173Z,13.90
2022-11-01T05:59:23.070Z,14.00
2022-11-01T06:01:51.096Z,13.90
2022-11-01T06:04:19.173Z,13.90
2022-11-01T06:06:48.406Z,13.90
2022-11-01T06:09:16.295Z,13.90
2022-11-01T06:11:44.248Z,13.90
2022-11-01T06:14:12.875Z,13.90
2022-11-01T06:16:41.455Z,13.90
2022-11-01T06:19:10.298Z,13.90
2022-11-01T06:21:38.157Z,13.90
2022-11-01T06:24:07.980Z,13.90
2022-11-01T06:26:35.987Z,13.90
2022-11-01T06:29:04.653Z,13.90
2022-11-01T06:31:33.097Z,13.90
2022-11-01T06:34:01.167Z,13.90
2022-11-01T06:36:30.459Z,13.90
2022-11-01T06:38:58.357Z,13.90
2022-11-01T06:41:27.737Z,13.90
2022-11-01T06:43:55.761Z,13.90
2022-11-01T06:46:24.057Z,13.90
2022-11-01T06:48:52.074Z,13.90
2022-11-01T06:51:19.955Z,13.90
2022-11-01T06:53:47.811Z,13.90
2022-11-01T06:56:15.686Z,13.90
2022-11-01T06:58:45.072Z,13.90
2022-11-01T07:01:13.129Z,13.90
2022-11-01T07:03:41.188Z,13.90
2022-11-01T07:06:09.078Z,13.90
2022-11-01T07:08:37.081Z,13.80
2022-11-01T07:11:06.234Z,13.90
2022-11-01T07:13:37.186Z,13.90
2022-11-01T07:16:07.308Z,13.90
2022-11-01T07:18:35.604Z,13.90
2022-11-01T07:21:05.003Z,13.80
2022-11-01T07:23:33.095Z,13.90
2022-11-01T07:26:01.119Z,13.80
2022-11-01T07:28:29.073Z,13.90
2022-11-01T07:30:57.067Z,13.80
2022-11-01T07:33:26.324Z,13.90
2022-11-01T07:35:54.333Z,13.90
2022-11-01T07:38:22.251Z,13.90
2022-11-01T07:40:52.265Z,13.90
2022-11-01T07:43:20.341Z,13.90
2022-11-01T07:45:48.990Z,13.90
2022-11-01T07:48:18.431Z,13.90
2022-11-01T07:50:47.986Z,13.90
2022-11-01T07:53:17.389Z,13.90
2022-11-01T07:55:46.155Z,13.90
2022-11-01T07:58:16.043Z,13.90
2022-11-01T08:00:45.052Z,13.90
2022-11-01T08:03:14.932Z,13.90
2022-11-01T08:05:43.744Z,13.90
2022-11-01T08:08:13.525Z,13.90
2022-11-01T08:10:42.387Z,13.90
2022-11-01T08:13:16.022Z,14.00
2022-11-01T08:15:44.066Z,14.00
2022-11-01T08:18:11.966Z,13.90
2022-11-01T08:20:40.883Z,13.90
2022-11-01T08:23:08.923Z,13.90
2022-11-01T08:25:38.733Z,13.90
2022-11-01T08:28:09.882Z,13.90
2022-11-01T08:30:38.727Z,13.90
2022-11-01T08:33:07.053Z,13.90
2022-11-01T08:35:36.297Z,14.00
2022-11-01T08:38:05.110Z,14.00
2022-11-01T08:40:34.347Z,14.00
2022-11-01T08:43:03.856Z,14.00
2022-11-01T08:45:31.929Z,14.00
2022-11-01T08:48:00.319Z,14.00
2022-11-01T08:50:29.128Z,14.00
2022-11-01T08:52:57.122Z,14.00
2022-11-01T08:55:25.441Z,14.00
2022-11-01T08:57:53.397Z,14.00
2022-11-01T09:00:22.801Z,14.00
2022-11-01T09:02:50.923Z,14.00
2022-11-01T09:05:19.344Z,14.10
2022-11-01T09:07:47.491Z,14.10
2022-11-01T09:10:16.213Z,14.10
2022-11-01T09:12:44.280Z,14.10
2022-11-01T09:15:12.606Z,14.10
2022-11-01T09:17:41.871Z,14.20
2022-11-01T09:20:11.027Z,14.10
2022-11-01T09:22:39.246Z,14.20
2022-11-01T09:25:08.159Z,14.20
2022-11-01T09:27:36.220Z,14.20
2022-11-01T09:30:04.713Z,14.20
2022-11-01T09:32:33.200Z,14.20
2022-11-01T09:35:02.689Z,14.20
2022-11-01T09:37:32.514Z,14.20
2022-11-01T09:40:00.537Z,14.20
2022-11-01T09:42:34.379Z,14.30
2022-11-01T09:45:06.864Z,14.30
2022-11-01T09:47:36.517Z,14.30
2022-11-01T09:50:15.111Z,14.30
2022-11-01T09:52:44.696Z,14.30
2022-11-01T09:55:16.357Z,14.40
2022-11-01T09:57:50.517Z,14.40
2022-11-01T10:00:21.622Z,14.40
2022-11-01T10:03:06.755Z,14.40
2022-11-01T10:05:48.918Z,14.40
2022-11-01T10:08:25.631Z,14.40
2022-11-01T10:11:03.334Z,14.40
2022-11-01T10:13:44.512Z,14.50
2022-11-01T10:16:21.154Z,14.50
2022-11-01T10:18:58.106Z,14.50
2022-11-01T10:21:30.438Z,14.50
2022-11-01T10:24:03.246Z,14.50
2022-11-01T10:26:32.180Z,14.50
2022-11-01T10:29:03.979Z,14.60
2022-11-01T10:31:37.289Z,14.60
2022-11-01T10:34:15.024Z,14.60
2022-11-01T10:36:47.000Z,14.60
2022-11-01T10:42:15.944Z,14.70
2022-11-01T10:44:48.349Z,14.70
2022-11-01T10:47:19.911Z,14.70
2022-11-01T10:50:05.432Z,14.70
2022-11-01T10:52:46.318Z,14.70
2022-11-01T10:55:18.280Z,14.70
2022-11-01T10:57:50.698Z,14.80
2022-11-01T11:00:21.234Z,14.80
2022-11-01T11:02:52.110Z,14.80
2022-11-01T11:05:22.275Z,14.80
2022-11-01T11:07:52.130Z,14.80
2022-11-01T11:10:24.896Z,14.90
2022-11-01T11:13:00.815Z,14.90
2022-11-01T11:15:38.545Z,14.90
2022-11-01T11:18:14.681Z,14.90
2022-11-01T11:20:43.514Z,15.00
2022-11-01T11:23:14.162Z,14.90
2022-11-01T11:25:44.825Z,15.00
2022-11-01T11:28:26.720Z,15.00
2022-11-01T11:30:54.798Z,15.00
2022-11-01T11:33:23.673Z,15.00
2022-11-01T11:35:56.966Z,15.00
2022-11-01T11:38:45.237Z,15.00
2022-11-01T11:41:14.810Z,15.10
2022-11-01T11:43:43.643Z,15.10
2022-11-01T11:46:20.923Z,15.10
2022-11-01T11:48:51.016Z,15.10
2022-11-01T11:51:20.224Z,15.20
2022-11-01T11:54:20.551Z,15.20
2022-11-01T11:56:52.930Z,15.20
2022-11-01T11:59:26.470Z,15.20
2022-11-01T12:02:00.190Z,15.20
2022-11-01T12:04:32.560Z,15.20
2022-11-01T12:07:00.491Z,15.30
2022-11-01T12:09:42.350Z,15.30
2022-11-01T12:12:17.923Z,15.30
2022-11-01T12:14:46.241Z,15.30
2022-11-01T12:17:28.129Z,15.30
2022-11-01T12:20:09.702Z,15.30
2022-11-01T12:22:39.206Z,15.40
2022-11-01T12:25:12.136Z,15.40
2022-11-01T12:27:49.746Z,15.40
2022-11-01T12:30:21.300Z,15.40
2022-11-01T12:32:52.946Z,15.40
2022-11-01T12:35:31.978Z,15.50
2022-11-01T12:38:29.754Z,15.50
2022-11-01T12:41:02.375Z,15.50
2022-11-01T12:43:37.350Z,15.50
2022-11-01T12:46:13.874Z,15.50
2022-11-01T12:48:46.014Z,15.50
2022-11-01T12:51:19.342Z,15.50
2022-11-01T12:53:50.633Z,15.50
2022-11-01T12:56:18.872Z,15.50
2022-11-01T12:58:48.302Z,15.50
2022-11-01T13:01:30.751Z,15.50
2022-11-01T13:04:14.186Z,15.50
2022-11-01T13:07:02.223Z,15.60
2022-11-01T13:09:41.302Z,15.50
2022-11-01T13:12:14.994Z,15.60
2022-11-01T13:14:53.487Z,15.50
2022-11-01T13:17:28.844Z,15.50
2022-11-01T13:20:05.452Z,15.60
2022-11-01T13:22:40.616Z,15.50
2022-11-01T13:25:20.076Z,15.60
2022-11-01T13:27:53.930Z,15.60
2022-11-01T13:30:24.490Z,15.60
2022-11-01T13:33:00.085Z,15.60
2022-11-01T13:35:43.885Z,15.50
2022-11-01T13:38:20.377Z,15.60
2022-11-01T13:40:58.107Z,15.50
2022-11-01T13:43:31.130Z,15.60
2022-11-01T13:46:21.408Z,15.60
2022-11-01T13:49:26.758Z,15.60
2022-11-01T13:52:01.262Z,15.60
2022-11-01T13:54:34.155Z,15.60
2022-11-01T13:57:13.565Z,15.60
2022-11-01T13:59:46.769Z,15.60
2022-11-01T14:02:42.978Z,15.60
2022-11-01T14:05:13.518Z,15.60
2022-11-01T14:08:24.291Z,15.60
2022-11-01T14:10:52.576Z,15.60
2022-11-01T14:13:32.530Z,15.60
2022-11-01T14:16:22.632Z,15.60
2022-11-01T14:19:20.281Z,15.60
2022-11-01T14:21:50.508Z,15.60
2022-11-01T14:24:28.352Z,15.60
2022-11-01T14:27:19.220Z,15.60
2022-11-01T14:29:51.231Z,15.60
2022-11-01T14:32:22.556Z,15.60
2022-11-01T14:35:01.828Z,15.60
2022-11-01T14:37:36.779Z,15.60
2022-11-01T14:40:19.797Z,15.60
2022-11-01T14:42:49.745Z,15.60
2022-11-01T14:45:30.541Z,15.60
2022-11-01T14:48:02.277Z,15.60
2022-11-01T14:50:41.411Z,15.60
2022-11-01T14:53:15.677Z,15.60
2022-11-01T14:55:43.599Z,15.60
2022-11-01T14:58:20.572Z,15.60
2022-11-01T15:00:50.200Z,15.60
2022-11-01T15:03:19.401Z,15.60
2022-11-01T15:05:50.911Z,15.60
2022-11-01T15:08:39.791Z,15.50
2022-11-01T15:11:11.354Z,15.50
2022-11-01T15:13:43.525Z,15.60
2022-11-01T15:16:17.750Z,15.50
2022-11-01T15:18:53.559Z,15.60
2022-11-01T15:21:28.887Z,15.50
2022-11-01T15:23:59.463Z,15.50
2022-11-01T15:26:31.164Z,15.50
2022-11-01T15:29:01.971Z,15.50
2022-11-01T15:31:31.351Z,15.50
2022-11-01T15:34:01.951Z,15.40
2022-11-01T15:36:36.478Z,15.50
2022-11-01T15:39:21.054Z,15.50
2022-11-01T15:41:50.261Z,15.50
2022-11-01T15:44:21.726Z,15.40
2022-11-01T15:46:50.927Z,15.40
2022-11-01T15:49:21.529Z,15.40
2022-11-01T15:51:54.085Z,15.40
2022-11-01T15:54:34.126Z,15.40
2022-11-01T15:57:09.424Z,15.30
2022-11-01T15:59:46.189Z,15.30
2022-11-01T16:02:21.638Z,15.30
2022-11-01T16:04:50.664Z,15.30
2022-11-01T16:07:22.378Z,15.30
2022-11-01T16:09:56.532Z,15.30
2022-11-01T16:12:27.145Z,15.30
2022-11-01T16:14:59.327Z,15.20
2022-11-01T16:17:33.693Z,15.20
2022-11-01T16:20:04.936Z,15.20
2022-11-01T16:22:45.744Z,15.20
2022-11-01T16:25:22.279Z,15.10
2022-11-01T16:27:58.762Z,15.20
2022-11-01T16:30:46.485Z,15.10
2022-11-01T16:33:20.236Z,15.10
2022-11-01T16:35:49.809Z,15.10
2022-11-01T16:38:42.929Z,15.00
2022-11-01T16:41:20.269Z,15.00
2022-11-01T16:43:49.313Z,15.00
2022-11-01T16:46:17.362Z,15.00
2022-11-01T16:48:54.324Z,15.00
2022-11-01T16:51:26.550Z,15.00
2022-11-01T16:53:56.366Z,14.90
2022-11-01T16:56:36.733Z,14.90
2022-11-01T16:59:08.657Z,14.90
2022-11-01T17:01:36.803Z,14.80
2022-11-01T17:04:05.867Z,14.80
2022-11-01T17:06:39.036Z,14.80
2022-11-01T17:09:13.125Z,14.80
2022-11-01T17:11:45.041Z,14.70
2022-11-01T17:14:16.075Z,14.70
2022-11-01T17:16:46.260Z,14.70
2022-11-01T17:19:21.693Z,14.70
2022-11-01T17:21:51.935Z,14.70
2022-11-01T17:24:23.788Z,14.60
2022-11-01T17:26:55.434Z,14.60
2022-11-01T17:29:23.374Z,14.60
2022-11-01T17:31:51.433Z,14.60
2022-11-01T17:34:19.445Z,14.60
2022-11-01T17:36:51.549Z,14.50
2022-11-01T17:39:21.227Z,14.60
2022-11-01T17:41:49.200Z,14.50
2022-11-01T17:44:17.500Z,14.50
2022-11-01T17:46:45.541Z,14.50
2022-11-01T17:49:15.954Z,14.40
2022-11-01T17:51:44.646Z,14.40
2022-11-01T17:54:12.733Z,14.40
2022-11-01T17:56:42.221Z,14.40
2022-11-01T17:59:10.323Z,14.40
2022-11-01T18:01:39.517Z,14.40
2022-11-01T18:04:07.631Z,14.30
2022-11-01T18:06:35.883Z,14.30
2022-11-01T18:09:09.160Z,14.30
2022-11-01T18:11:43.149Z,14.20
2022-11-01T18:14:17.172Z,14.30
2022-11-01T18:16:49.402Z,14.20
2022-11-01T18:19:40.236Z,14.20
2022-11-01T18:22:19.788Z,14.20
2022-11-01T18:24:51.598Z,14.10
2022-11-01T18:27:25.773Z,14.10
2022-11-01T18:29:55.166Z,14.10
2022-11-01T18:32:28.860Z,14.10
2022-11-01T18:35:01.050Z,14.10
2022-11-01T18:37:38.162Z,14.00
2022-11-01T18:40:14.867Z,14.00
2022-11-01T18:42:43.445Z,14.00
2022-11-01T18:45:25.589Z,14.00
2022-11-01T18:48:02.894Z,14.00
2022-11-01T18:50:33.207Z,13.90
2022-11-01T18:53:12.708Z,13.90
2022-11-01T18:55:40.993Z,13.90
2022-11-01T18:58:16.870Z,13.90
2022-11-01T19:00:46.341Z,13.80
2022-11-01T19:03:23.985Z,13.80
2022-11-01T19:05:52.624Z,13.80
2022-11-01T19:08:28.939Z,13.80
2022-11-01T19:10:57.225Z,13.80
2022-11-01T19:13:31.206Z,13.70
2022-11-01T19:16:04.258Z,13.70
2022-11-01T19:18:50.375Z,13.70
2022-11-01T19:22:12.839Z,13.70
2022-11-01T19:25:25.168Z,13.70
2022-11-01T19:32:21.311Z,13.60
2022-11-01T19:35:07.837Z,13.60
2022-11-01T19:37:44.201Z,13.60
2022-11-01T19:40:37.438Z,13.60
2022-11-01T19:43:20.386Z,13.50
2022-11-01T19:46:19.729Z,13.50
2022-11-01T19:52:25.937Z,13.50
2022-11-01T19:55:02.874Z,13.40
2022-11-01T19:57:32.889Z,13.40
2022-11-01T20:00:18.956Z,13.40
2022-11-01T20:02:47.359Z,13.40
2022-11-01T20:05:28.594Z,13.30
2022-11-01T20:08:06.700Z,13.30
2022-11-01T20:10:34.737Z,13.30
2022-11-01T20:13:05.365Z,13.30
2022-11-01T20:15:33.556Z,13.30
2022-11-01T20:21:36.494Z,13.30
2022-11-01T20:24:04.969Z,13.30
2022-11-01T20:26:37.672Z,13.30
2022-11-01T20:29:05.739Z,13.30
2022-11-01T20:31:33.740Z,13.30
2022-11-01T20:34:01.786Z,13.20
2022-11-01T20:36:31.190Z,13.20
2022-11-01T20:38:59.184Z,13.20
2022-11-01T20:41:27.218Z,13.20
2022-11-01T20:43:55.171Z,13.20
2022-11-01T20:46:23.984Z,13.20
2022-11-01T20:48:51.895Z,13.10
2022-11-01T20:51:19.965Z,13.10
2022-11-01T20:53:49.254Z,13.10
2022-11-01T20:56:17.622Z,13.10
2022-11-01T20:58:45.657Z,13.10
2022-11-01T21:01:15.143Z,13.00
2022-11-01T21:03:43.269Z,13.00
2022-11-01T21:06:13.944Z,13.00
2022-11-01T21:08:43.069Z,13.00
2022-11-01T21:11:20.362Z,13.00
2022-11-01T21:13:48.249Z,13.00
2022-11-01T21:16:23.375Z,13.00
2022-11-01T21:18:54.620Z,12.90
2022-11-01T21:21:32.313Z,12.90
2022-11-01T21:24:01.287Z,12.90
2022-11-01T21:26:32.833Z,12.90
2022-11-01T21:29:05.922Z,12.90
2022-11-01T21:31:35.130Z,12.80
2022-11-01T21:34:18.224Z,12.80
2022-11-01T21:36:48.825Z,12.80
2022-11-01T21:39:21.280Z,12.90
2022-11-01T21:41:52.421Z,12.80
2022-11-01T21:44:26.005Z,12.80
2022-11-01T21:46:56.221Z,12.80
2022-11-01T21:49:27.527Z,12.80
2022-11-01T21:51:56.928Z,12.70
2022-11-01T21:54:24.886Z,12.80
2022-11-01T21:56:54.420Z,12.70
2022-11-01T21:59:22.320Z,12.70
2022-11-01T22:01:50.781Z,12.70
2022-11-01T22:04:20.558Z,12.70
2022-11-01T22:06:50.828Z,12.70
2022-11-01T22:09:19.514Z,12.70
2022-11-01T22:11:47.430Z,12.60
2022-11-01T22:14:16.945Z,12.60
2022-11-01T22:16:44.825Z,12.60
2022-11-01T22:19:12.651Z,12.60
2022-11-01T22:21:40.660Z,12.60
2022-11-01T22:24:09.109Z,12.50
2022-11-01T22:26:36.951Z,12.60
2022-11-01T22:29:04.839Z,12.50
2022-11-01T22:31:34.152Z,12.50
2022-11-01T22:34:02.804Z,12.50
2022-11-01T22:36:32.189Z,12.50
2022-11-01T22:39:01.953Z,12.50
2022-11-01T22:41:33.261Z,12.50
2022-11-01T22:44:05.749Z,12.50
2022-11-01T22:46:44.686Z,12.40
2022-11-01T22:49:17.563Z,12.50
2022-11-01T22:51:46.826Z,12.40
2022-11-01T22:54:33.756Z,12.40
2022-11-01T22:57:07.675Z,12.40
2022-11-01T22:59:38.201Z,12.40
2022-11-01T23:02:26.908Z,12.40
2022-11-01T23:05:23.139Z,12.40
2022-11-01T23:07:53.365Z,12.40
2022-11-01T23:10:24.551Z,12.40
2022-11-01T23:13:13.921Z,12.40
2022-11-01T23:15:41.895Z,12.40
2022-11-01T23:18:19.136Z,12.40
2022-11-01T23:20:53.733Z,12.40
2022-11-01T23:23:22.608Z,12.40
2022-11-01T23:25:50.652Z,12.40
2022-11-01T23:28:19.158Z,12.40
2022-11-01T23:30:48.631Z,12.40
2022-11-01T23:33:22.365Z,12.40
2022-11-01T23:35:53.525Z,12.40
2022-11-01T23:38:23.452Z,12.30
2022-11-01T23:40:53.981Z,12.40
2022-11-01T23:43:28.750Z,12.40
2022-11-01T23:45:56.686Z,12.40
2022-11-01T23:48:25.976Z,12.30
2022-11-01T23:50:54.481Z,12.40
2022-11-01T23:53:30.378Z,12.30
2022-11-01T23:55:59.457Z,12.30
2022-11-01T23:58:30.887Z,12.30
